createdAt,value
2023-02-02T00:03:59.988Z,102919.72
2023-02-02T00:09:03.436Z,102924.13
2023-02-02T00:14:05.745Z,102910.94
2023-02-02T00:19:15.566Z,102899.53
2023-02-02T00:24:18.472Z,102902.94
2023-02-02T00:29:23.322Z,102892.38
2023-02-02T00:34:25.896Z,102887.19
2023-02-02T00:39:28.216Z,102896.00
2023-02-02T00:44:48.864Z,102891.63
2023-02-02T00:49:51.038Z,102892.53
2023-02-02T00:54:53.533Z,102896.00
2023-02-02T00:59:55.888Z,102893.31
2023-02-02T01:04:58.180Z,102893.22
2023-02-02T01:10:00.433Z,102884.44
2023-02-02T01:15:03.540Z,102880.06
2023-02-02T01:20:09.276Z,102878.41
2023-02-02T01:25:11.482Z,102872.31
2023-02-02T01:30:14.131Z,102881.97
2023-02-02T01:35:16.311Z,102873.19
2023-02-02T01:40:18.652Z,102873.91
2023-02-02T01:45:29.519Z,102873.00
2023-02-02T01:50:34.654Z,102864.25
2023-02-02T01:55:40.108Z,102859.94
2023-02-02T02:00:46.153Z,102859.03
2023-02-02T02:06:15.638Z,102848.56
2023-02-02T02:11:18.572Z,102842.28
2023-02-02T02:16:44.933Z,102840.47
2023-02-02T02:22:25.569Z,102835.19
2023-02-02T02:27:46.271Z,102834.44
2023-02-02T02:33:00.091Z,102821.16
2023-02-02T02:38:17.738Z,102837.94
2023-02-02T02:43:55.823Z,102803.69
2023-02-02T02:49:00.307Z,102809.69
2023-02-02T02:54:03.283Z,102807.88
2023-02-02T02:59:14.194Z,102811.41
2023-02-02T03:04:38.262Z,102791.31
2023-02-02T03:09:44.085Z,102815.09
2023-02-02T03:14:46.245Z,102807.19
2023-02-02T03:19:48.339Z,102820.34
2023-02-02T03:24:50.494Z,102807.00
2023-02-02T03:29:52.919Z,102814.88
2023-02-02T03:34:55.007Z,102813.16
2023-02-02T03:39:57.265Z,102815.84
2023-02-02T03:44:59.524Z,102813.25
2023-02-02T03:50:01.670Z,102822.03
2023-02-02T03:55:04.146Z,102820.28
2023-02-02T04:00:06.989Z,102817.56
2023-02-02T04:05:14.165Z,102828.91
2023-02-02T04:10:17.303Z,102827.19
2023-02-02T04:15:19.470Z,102828.06
2023-02-02T04:20:21.599Z,102822.78
2023-02-02T04:25:24.067Z,102826.34
2023-02-02T04:30:26.331Z,102824.59
2023-02-02T04:35:28.523Z,102826.34
2023-02-02T04:40:30.612Z,102821.84
2023-02-02T04:45:33.103Z,102836.78
2023-02-02T04:50:35.403Z,102831.50
2023-02-02T04:55:39.099Z,102827.19
2023-02-02T05:00:41.254Z,102838.66
2023-02-02T05:05:43.406Z,102835.19
2023-02-02T05:10:45.483Z,102838.66
2023-02-02T05:15:48.450Z,102834.13
2023-02-02T05:20:50.580Z,102829.78
2023-02-02T05:25:54.742Z,102834.19
2023-02-02T05:30:57.745Z,102836.03
2023-02-02T05:36:00.018Z,102837.78
2023-02-02T05:41:02.789Z,102862.38
2023-02-02T05:46:05.382Z,102851.81
2023-02-02T05:51:16.151Z,102838.50
2023-02-02T05:56:18.398Z,102849.91
2023-02-02T06:01:21.669Z,102842.91
2023-02-02T06:06:24.000Z,102852.63
2023-02-02T06:11:26.258Z,102848.22
2023-02-02T06:16:28.471Z,102850.88
2023-02-02T06:21:33.416Z,102860.47
2023-02-02T06:26:35.820Z,102857.84
2023-02-02T06:31:38.044Z,102871.88
2023-02-02T06:36:40.411Z,102867.50
2023-02-02T06:41:44.939Z,102875.44
2023-02-02T06:46:47.703Z,102864.91
2023-02-02T06:51:50.031Z,102865.78
2023-02-02T06:56:52.181Z,102871.88
2023-02-02T07:01:54.392Z,102886.72
2023-02-02T07:06:56.555Z,102885.81
2023-02-02T07:11:59.519Z,102884.03
2023-02-02T07:17:01.899Z,102894.66
2023-02-02T07:22:04.076Z,102880.69
2023-02-02T07:27:06.354Z,102891.28
2023-02-02T07:32:08.504Z,102896.59
2023-02-02T07:37:11.069Z,102897.38
2023-02-02T07:42:13.646Z,102899.13
2023-02-02T07:47:17.477Z,102902.59
2023-02-02T07:52:19.663Z,102922.84
2023-02-02T07:57:21.868Z,102930.75
2023-02-02T08:02:24.132Z,102907.97
2023-02-02T08:07:26.413Z,102909.72
2023-02-02T08:12:28.757Z,102911.44
2023-02-02T08:17:30.950Z,102918.47
2023-02-02T08:22:33.081Z,102922.84
2023-02-02T08:27:36.964Z,102913.41
2023-02-02T08:32:40.697Z,102924.69
2023-02-02T08:37:42.908Z,102925.50
2023-02-02T08:42:46.475Z,102930.88
2023-02-02T08:47:52.041Z,102941.38
2023-02-02T08:53:01.050Z,102932.53
2023-02-02T08:58:03.225Z,102937.72
2023-02-02T09:03:05.674Z,102933.44
2023-02-02T09:08:07.850Z,102947.50
2023-02-02T09:13:10.238Z,102953.69
2023-02-02T09:18:12.385Z,102946.59
2023-02-02T09:23:14.545Z,102961.50
2023-02-02T09:28:16.954Z,102958.84
2023-02-02T09:33:19.102Z,102957.16
2023-02-02T09:38:21.231Z,102961.63
2023-02-02T09:43:52.136Z,102964.28
2023-02-02T09:49:09.970Z,102963.44
2023-02-02T09:54:27.126Z,102969.72
2023-02-02T09:59:37.656Z,102973.00
2023-02-02T10:04:43.982Z,102997.56
2023-02-02T10:10:02.813Z,102996.72
2023-02-02T10:15:20.761Z,102992.34
2023-02-02T10:20:59.331Z,102988.91
2023-02-02T10:26:27.517Z,102992.44
2023-02-02T10:31:43.664Z,102992.44
2023-02-02T10:37:07.780Z,102994.13
2023-02-02T10:42:21.695Z,102996.75
2023-02-02T10:47:28.110Z,102986.97
2023-02-02T10:52:33.811Z,102976.53
2023-02-02T10:58:13.298Z,102971.31
2023-02-02T11:03:17.858Z,102968.66
2023-02-02T11:08:30.499Z,102972.19
2023-02-02T11:13:38.124Z,102953.63
2023-02-02T11:18:43.889Z,102946.66
2023-02-02T11:23:55.941Z,102935.28
2023-02-02T11:29:00.008Z,102946.69
2023-02-02T11:34:28.275Z,102935.34
2023-02-02T11:39:31.313Z,102930.97
2023-02-02T11:44:36.026Z,102937.00
2023-02-02T11:49:43.853Z,102933.44
2023-02-02T11:54:58.847Z,102924.72
2023-02-02T12:00:10.467Z,102918.66
2023-02-02T12:05:13.552Z,102924.78
2023-02-02T12:10:18.665Z,102924.78
2023-02-02T12:15:30.568Z,102916.00
2023-02-02T12:20:46.332Z,102910.59
2023-02-02T12:26:16.118Z,102898.31
2023-02-02T12:31:27.324Z,102902.69
2023-02-02T12:36:40.451Z,102887.81
2023-02-02T12:42:03.953Z,102887.00
2023-02-02T12:47:35.927Z,102890.53
2023-02-02T12:53:07.326Z,102886.03
2023-02-02T12:58:24.362Z,102872.78
2023-02-02T13:04:00.569Z,102863.09
2023-02-02T13:09:10.189Z,102855.25
2023-02-02T13:14:36.188Z,102862.28
2023-02-02T13:19:49.106Z,102857.00
2023-02-02T13:24:55.847Z,102857.09
2023-02-02T13:30:05.757Z,102843.81
2023-02-02T13:35:17.674Z,102842.91
2023-02-02T13:40:32.885Z,102849.03
2023-02-02T13:45:53.030Z,102842.91
2023-02-02T13:51:36.394Z,102834.25
2023-02-02T13:57:13.128Z,102848.31
2023-02-02T14:02:52.320Z,102841.28
2023-02-02T14:08:02.370Z,102836.78
2023-02-02T14:13:32.131Z,102849.06
2023-02-02T14:18:52.327Z,102837.66
2023-02-02T14:23:55.778Z,102849.97
2023-02-02T14:28:57.973Z,102853.50
2023-02-02T14:34:30.539Z,102854.47
2023-02-02T14:39:41.480Z,102862.38
2023-02-02T14:45:08.073Z,102851.69
2023-02-02T14:50:38.353Z,102845.53
2023-02-02T14:56:01.036Z,102849.97
2023-02-02T15:01:17.451Z,102859.66
2023-02-02T15:06:43.433Z,102858.84
2023-02-02T15:12:03.682Z,102850.06
2023-02-02T15:17:17.723Z,102848.22
2023-02-02T15:22:35.282Z,102851.66
2023-02-02T15:27:51.514Z,102854.34
2023-02-02T15:32:58.959Z,102853.47
2023-02-02T15:38:06.230Z,102851.75
2023-02-02T15:43:10.710Z,102856.13
2023-02-02T15:48:31.924Z,102860.53
2023-02-02T15:53:49.070Z,102863.13
2023-02-02T15:58:54.025Z,102856.91
2023-02-02T16:04:08.566Z,102848.06
2023-02-02T16:09:19.629Z,102870.13
2023-02-02T16:14:22.270Z,102873.63
2023-02-02T16:19:26.974Z,102865.75
2023-02-02T16:24:33.375Z,102864.03
2023-02-02T16:29:35.921Z,102873.69
2023-02-02T16:34:41.060Z,102878.84
2023-02-02T16:39:43.770Z,102865.59
2023-02-02T16:44:45.874Z,102878.00
2023-02-02T16:49:48.058Z,102888.59
2023-02-02T16:54:53.850Z,102886.91
2023-02-02T16:59:59.975Z,102898.28
2023-02-02T17:05:30.272Z,102891.22
2023-02-02T17:10:37.828Z,102903.41
2023-02-02T17:15:39.959Z,102907.81
2023-02-02T17:20:42.629Z,102899.13
2023-02-02T17:25:45.380Z,102918.47
2023-02-02T17:30:50.587Z,102902.69
2023-02-02T17:35:56.567Z,102912.34
2023-02-02T17:41:02.060Z,102921.88
2023-02-02T17:46:04.449Z,102920.91
2023-02-02T17:51:13.606Z,102929.72
2023-02-02T17:56:15.877Z,102946.44
2023-02-02T18:01:18.117Z,102932.41
2023-02-02T18:06:20.303Z,102935.06
2023-02-02T18:11:22.388Z,102940.38
2023-02-02T18:16:24.616Z,102931.50
2023-02-02T18:21:26.916Z,102943.72
2023-02-02T18:26:29.127Z,102945.50
2023-02-02T18:31:31.518Z,102941.19
2023-02-02T18:36:34.258Z,102945.56
2023-02-02T18:41:36.467Z,102957.00
2023-02-02T18:46:38.635Z,102943.84
2023-02-02T18:51:42.041Z,102947.28
2023-02-02T18:56:44.245Z,102947.22
2023-02-02T19:01:46.363Z,102945.38
2023-02-02T19:07:07.203Z,102941.03
2023-02-02T19:12:14.255Z,102944.66
2023-02-02T19:17:28.270Z,102948.22
2023-02-02T19:22:32.650Z,102945.63
2023-02-02T19:27:36.439Z,102956.16
2023-02-02T19:32:38.654Z,102947.22
2023-02-02T19:37:43.400Z,102949.00
2023-02-02T19:43:06.656Z,102948.13
2023-02-02T19:48:26.587Z,102957.88
2023-02-02T19:53:38.156Z,102960.59
2023-02-02T19:58:40.355Z,102950.03
2023-02-02T20:03:45.643Z,102959.72
2023-02-02T20:08:47.972Z,102960.53
2023-02-02T20:13:51.841Z,102961.31
2023-02-02T20:18:57.267Z,102968.44
2023-02-02T20:23:59.678Z,102963.22
2023-02-02T20:29:25.359Z,102962.41
2023-02-02T20:34:31.364Z,102968.53
2023-02-02T20:39:42.046Z,102978.16
2023-02-02T20:44:44.259Z,102975.44
2023-02-02T20:49:46.904Z,102967.56
2023-02-02T20:54:49.617Z,102986.06
2023-02-02T20:59:57.753Z,102984.31
2023-02-02T21:05:01.580Z,102982.59
2023-02-02T21:10:03.913Z,102986.06
2023-02-02T21:15:06.633Z,102978.13
2023-02-02T21:20:10.314Z,102972.81
2023-02-02T21:25:12.746Z,102974.56
2023-02-02T21:30:15.314Z,102979.88
2023-02-02T21:35:17.808Z,102981.66
2023-02-02T21:40:25.800Z,102982.59
2023-02-02T21:45:38.702Z,102979.91
2023-02-02T21:50:41.870Z,102979.84
2023-02-02T21:55:45.353Z,102978.00
2023-02-02T22:00:49.608Z,102966.66
2023-02-02T22:05:51.848Z,102980.72
2023-02-02T22:10:53.953Z,102979.03
2023-02-02T22:15:56.265Z,102969.38
2023-02-02T22:20:59.624Z,102983.47
2023-02-02T22:26:01.708Z,102986.97
2023-02-02T22:31:05.235Z,102980.75
2023-02-02T22:36:08.007Z,103004.47
2023-02-02T22:41:10.247Z,102993.91
2023-02-02T22:46:12.417Z,102988.69
2023-02-02T22:51:14.574Z,102987.84
2023-02-02T22:56:16.706Z,102993.16
2023-02-02T23:01:18.861Z,103002.78
2023-02-02T23:06:21.023Z,102999.25
2023-02-02T23:11:23.219Z,102993.03
2023-02-02T23:16:25.405Z,102996.59
2023-02-02T23:21:27.595Z,103003.66
2023-02-02T23:26:29.823Z,102993.16
2023-02-02T23:31:32.095Z,102995.78
2023-02-02T23:36:34.353Z,102993.97
2023-02-02T23:41:36.415Z,103000.09
2023-02-02T23:46:39.925Z,102985.13
2023-02-02T23:51:42.197Z,102987.81
2023-02-02T23:56:44.704Z,102987.81
